Guayaramerin, Bolivia
Current Conditions -  °F | °C
As of 5:00 PM on Monday 20 Oct 2014 (Local Time) from SLRI Reporting Station
Rain Showers Rain Showers  
Wind Chill: 88°   Ceiling: 20000
Heat Index: 96°   Visibility: 4mi
Dew Point: 73°   Wind: 7mph
Humidity: 62%   Direction: 30°NNE
Pressure: 29.74"   Gusts: NA
Location:  10.83°S, 65.41°W
Report Text: SLRI 202100Z 03006KT 7000 VCSH SCT017 FEW020CB BKN200 31/23 Q1007
Loading
Personal Weather Stations






























Interactive Weather Map
Tropical Storm Tracking
New forecast layout! Learn more

10-Day Weather Forecast

Advertisements
Track Severe Weather on mobile